createdAt,value
2023-02-12T00:01:21.721Z,99.90
2023-02-12T00:03:48.345Z,99.90
2023-02-12T00:06:16.160Z,99.90
2023-02-12T00:08:42.973Z,99.90
2023-02-12T00:11:19.834Z,99.90
2023-02-12T00:13:46.498Z,99.90
2023-02-12T00:16:14.264Z,99.90
2023-02-12T00:18:40.860Z,99.90
2023-02-12T00:21:10.257Z,99.90
2023-02-12T00:23:37.555Z,99.90
2023-02-12T00:26:08.024Z,99.90
2023-02-12T00:28:34.800Z,99.90
2023-02-12T00:31:08.545Z,99.90
2023-02-12T00:33:35.115Z,99.90
2023-02-12T00:36:01.621Z,99.90
2023-02-12T00:38:28.456Z,99.90
2023-02-12T00:40:55.037Z,99.90
2023-02-12T00:43:21.608Z,99.90
2023-02-12T00:45:48.563Z,99.90
2023-02-12T00:48:15.496Z,99.90
2023-02-12T00:50:44.628Z,99.90
2023-02-12T00:53:11.595Z,99.90
2023-02-12T00:55:38.154Z,99.90
2023-02-12T00:58:04.662Z,99.90
2023-02-12T01:00:31.231Z,99.90
2023-02-12T01:02:57.744Z,99.90
2023-02-12T01:05:24.400Z,99.90
2023-02-12T01:07:51.844Z,99.90
2023-02-12T01:10:18.480Z,99.90
2023-02-12T01:12:45.050Z,99.90
2023-02-12T01:15:11.657Z,99.90
2023-02-12T01:17:38.176Z,1.00
2023-02-12T01:20:07.126Z,1.00
2023-02-12T01:22:34.779Z,1.00
2023-02-12T01:25:01.439Z,1.00
2023-02-12T01:27:27.980Z,1.00
2023-02-12T01:29:54.480Z,1.00
2023-02-12T01:32:21.174Z,99.90
2023-02-12T01:34:47.740Z,1.00
2023-02-12T01:37:14.245Z,1.00
2023-02-12T01:39:40.843Z,1.00
2023-02-12T01:42:07.448Z,1.00
2023-02-12T01:44:44.504Z,1.00
2023-02-12T01:47:12.758Z,1.00
2023-02-12T01:49:41.082Z,1.00
2023-02-12T01:52:26.102Z,99.90
2023-02-12T01:54:57.047Z,99.90
2023-02-12T01:57:24.403Z,1.00
2023-02-12T01:59:53.376Z,1.00
2023-02-12T02:02:19.912Z,1.00
2023-02-12T02:04:49.183Z,1.00
2023-02-12T02:07:16.160Z,1.00
2023-02-12T02:09:43.219Z,1.00
2023-02-12T02:12:28.653Z,1.00
2023-02-12T02:14:57.555Z,1.00
2023-02-12T02:17:29.684Z,1.00
2023-02-12T02:20:15.001Z,1.00
2023-02-12T02:22:45.167Z,1.00
2023-02-12T02:25:30.563Z,1.00
2023-02-12T02:28:05.447Z,1.00
2023-02-12T02:30:31.993Z,1.00
2023-02-12T02:33:04.608Z,1.00
2023-02-12T02:35:38.091Z,1.00
2023-02-12T02:38:07.474Z,1.00
2023-02-12T02:40:50.238Z,1.00
2023-02-12T02:43:20.391Z,1.00
2023-02-12T02:45:48.492Z,1.00
2023-02-12T02:48:29.340Z,1.00
2023-02-12T02:50:57.722Z,1.00
2023-02-12T02:53:30.390Z,1.00
2023-02-12T02:55:58.702Z,1.00
2023-02-12T02:58:35.970Z,1.00
2023-02-12T03:01:17.979Z,1.00
2023-02-12T03:03:58.267Z,1.00
2023-02-12T03:06:30.492Z,1.00
2023-02-12T03:08:59.135Z,1.00
2023-02-12T03:11:27.509Z,99.90
2023-02-12T03:14:00.905Z,99.90
2023-02-12T03:16:30.030Z,99.90
2023-02-12T03:19:09.247Z,99.90
2023-02-12T03:21:46.120Z,99.90
2023-02-12T03:24:36.175Z,99.90
2023-02-12T03:27:15.017Z,99.90
2023-02-12T03:29:41.655Z,1.00
2023-02-12T03:32:14.154Z,1.00
2023-02-12T03:34:54.954Z,1.00
2023-02-12T03:37:36.186Z,1.00
2023-02-12T03:40:05.653Z,1.00
2023-02-12T03:42:32.279Z,1.00
2023-02-12T03:45:06.403Z,1.00
2023-02-12T03:47:43.106Z,1.00
2023-02-12T03:50:13.001Z,1.00
2023-02-12T03:52:39.754Z,1.00
2023-02-12T03:55:06.724Z,1.00
2023-02-12T03:57:35.216Z,1.00
2023-02-12T04:00:06.169Z,1.00
2023-02-12T04:02:33.564Z,1.00
2023-02-12T04:05:06.688Z,1.00
2023-02-12T04:07:33.465Z,1.00
2023-02-12T04:10:00.031Z,1.00
2023-02-12T04:12:33.581Z,1.00
2023-02-12T04:15:18.920Z,1.00
2023-02-12T04:17:54.755Z,1.00
2023-02-12T04:20:26.724Z,1.00
2023-02-12T04:23:12.312Z,1.00
2023-02-12T04:26:08.331Z,1.00
2023-02-12T04:28:51.089Z,1.00
2023-02-12T04:31:23.890Z,1.00
2023-02-12T04:34:00.402Z,1.00
2023-02-12T04:36:30.622Z,1.00
2023-02-12T04:39:02.773Z,1.00
2023-02-12T04:41:30.382Z,1.00
2023-02-12T04:43:56.954Z,1.00
2023-02-12T04:46:23.532Z,1.00
2023-02-12T04:48:52.082Z,1.00
2023-02-12T04:51:18.623Z,1.00
2023-02-12T04:53:47.029Z,1.00
2023-02-12T04:56:13.645Z,1.00
2023-02-12T04:58:40.852Z,1.00
2023-02-12T05:03:58.535Z,1.00
2023-02-12T05:06:25.191Z,1.00
2023-02-12T05:08:54.775Z,1.00
2023-02-12T05:11:21.326Z,1.00
2023-02-12T05:13:48.648Z,1.00
2023-02-12T05:16:15.219Z,1.00
2023-02-12T05:18:41.765Z,1.00
2023-02-12T05:21:08.363Z,1.00
2023-02-12T05:23:36.376Z,1.00
2023-02-12T05:26:04.518Z,1.00
2023-02-12T05:28:31.107Z,1.00
2023-02-12T05:31:01.782Z,1.00
2023-02-12T05:33:28.447Z,1.00
2023-02-12T05:35:55.692Z,1.00
2023-02-12T05:38:22.778Z,1.00
2023-02-12T05:40:49.339Z,1.00
2023-02-12T05:43:15.850Z,1.00
2023-02-12T05:45:45.019Z,1.00
2023-02-12T05:48:11.530Z,1.00
2023-02-12T05:50:38.259Z,1.00
2023-02-12T05:53:04.747Z,1.00
2023-02-12T05:55:31.262Z,1.00
2023-02-12T05:57:57.788Z,1.00
2023-02-12T06:00:24.441Z,1.00
2023-02-12T06:02:51.016Z,1.00
2023-02-12T06:05:17.677Z,1.00
2023-02-12T06:07:44.189Z,1.00
2023-02-12T06:10:10.985Z,1.00
2023-02-12T06:12:37.489Z,1.00
2023-02-12T06:15:04.122Z,1.00
2023-02-12T06:17:30.680Z,1.00
2023-02-12T06:19:57.244Z,1.00
2023-02-12T06:22:23.757Z,1.00
2023-02-12T06:24:50.265Z,1.00
2023-02-12T06:27:17.031Z,1.00
2023-02-12T06:29:43.574Z,1.00
2023-02-12T06:32:13.546Z,1.00
2023-02-12T06:34:40.257Z,1.00
2023-02-12T06:37:06.777Z,1.00
2023-02-12T06:39:33.283Z,1.00
2023-02-12T06:41:59.795Z,1.00
2023-02-12T06:44:26.374Z,1.00
2023-02-12T06:46:53.543Z,1.00
2023-02-12T06:49:20.148Z,1.00
2023-02-12T06:51:46.653Z,1.00
2023-02-12T06:54:14.174Z,1.00
2023-02-12T06:56:40.684Z,1.00
2023-02-12T06:59:07.199Z,1.00
2023-02-12T07:01:33.693Z,1.00
2023-02-12T07:04:02.476Z,1.00
2023-02-12T07:06:29.918Z,1.00
2023-02-12T07:08:56.637Z,1.00
2023-02-12T07:11:24.283Z,1.00
2023-02-12T07:13:50.866Z,1.00
2023-02-12T07:16:17.563Z,1.00
2023-02-12T07:18:44.520Z,1.00
2023-02-12T07:21:12.021Z,1.00
2023-02-12T07:23:38.624Z,1.00
2023-02-12T07:26:06.653Z,1.00
2023-02-12T07:28:34.028Z,1.00
2023-02-12T07:31:01.061Z,1.00
2023-02-12T07:33:27.600Z,1.00
2023-02-12T07:35:54.483Z,1.00
2023-02-12T07:38:21.169Z,1.00
2023-02-12T07:40:47.658Z,1.00
2023-02-12T07:43:14.182Z,1.00
2023-02-12T07:45:40.725Z,1.00
2023-02-12T07:48:07.377Z,1.00
2023-02-12T07:50:33.896Z,1.00
2023-02-12T07:53:00.410Z,1.00
2023-02-12T07:55:26.984Z,1.00
2023-02-12T07:57:53.476Z,1.00
2023-02-12T08:00:20.382Z,1.00
2023-02-12T08:02:53.461Z,1.00
2023-02-12T08:05:20.443Z,1.00
2023-02-12T08:07:46.992Z,1.00
2023-02-12T08:10:13.513Z,1.00
2023-02-12T08:12:40.024Z,1.00
2023-02-12T08:15:06.701Z,1.00
2023-02-12T08:17:34.257Z,1.00
2023-02-12T08:20:00.769Z,1.00
2023-02-12T08:22:27.295Z,1.00
2023-02-12T08:24:53.804Z,1.00
2023-02-12T08:27:20.314Z,1.00
2023-02-12T08:29:46.986Z,1.00
2023-02-12T08:32:14.335Z,1.00
2023-02-12T08:34:41.400Z,1.00
2023-02-12T08:37:08.055Z,1.00
2023-02-12T08:39:34.547Z,1.00
2023-02-12T08:42:01.767Z,1.00
2023-02-12T08:44:28.945Z,1.00
2023-02-12T08:46:55.771Z,1.00
2023-02-12T08:49:26.700Z,1.00
2023-02-12T08:51:54.623Z,1.00
2023-02-12T08:54:25.313Z,1.00
2023-02-12T08:56:55.932Z,1.00
2023-02-12T08:59:22.477Z,1.00
2023-02-12T09:01:50.506Z,1.00
2023-02-12T09:04:18.612Z,1.00
2023-02-12T09:06:45.938Z,1.00
2023-02-12T09:09:12.526Z,99.90
2023-02-12T09:11:39.116Z,1.00
2023-02-12T09:14:07.059Z,1.00
2023-02-12T09:16:34.778Z,1.00
2023-02-12T09:19:01.488Z,99.90
2023-02-12T09:21:28.039Z,1.00
2023-02-12T09:23:54.792Z,99.90
2023-02-12T09:26:22.557Z,1.00
2023-02-12T09:28:49.978Z,99.90
2023-02-12T09:31:18.926Z,1.00
2023-02-12T09:33:45.512Z,1.00
2023-02-12T09:36:13.354Z,1.00
2023-02-12T09:38:40.225Z,1.00
2023-02-12T09:41:25.662Z,1.00
2023-02-12T09:43:56.452Z,1.00
2023-02-12T09:46:26.063Z,1.00
2023-02-12T09:49:05.046Z,1.00
2023-02-12T09:51:32.041Z,1.00
2023-02-12T09:54:03.640Z,1.00
2023-02-12T09:56:30.670Z,1.00
2023-02-12T09:58:59.228Z,1.00
2023-02-12T10:01:29.573Z,1.00
2023-02-12T10:03:56.516Z,1.00
2023-02-12T10:06:31.208Z,1.00
2023-02-12T10:08:58.164Z,1.00
2023-02-12T10:11:24.635Z,1.00
2023-02-12T10:13:52.387Z,1.00
2023-02-12T10:16:38.537Z,1.00
2023-02-12T10:19:23.961Z,1.00
2023-02-12T10:21:54.834Z,1.00
2023-02-12T10:24:36.793Z,1.00
2023-02-12T10:27:07.586Z,1.00
2023-02-12T10:29:38.100Z,99.90
2023-02-12T10:32:07.378Z,99.90
2023-02-12T10:34:35.092Z,99.90
2023-02-12T10:37:25.054Z,99.90
2023-02-12T10:39:54.652Z,99.90
2023-02-12T10:42:29.806Z,99.90
2023-02-12T10:44:56.415Z,99.90
2023-02-12T10:47:23.928Z,99.90
2023-02-12T10:49:58.448Z,99.90
2023-02-12T10:52:43.761Z,99.90
2023-02-12T10:55:24.159Z,99.90
2023-02-12T10:57:50.905Z,99.90
2023-02-12T11:00:30.383Z,99.90
2023-02-12T11:03:18.639Z,99.90
2023-02-12T11:05:45.159Z,99.90
2023-02-12T11:08:30.724Z,99.90
2023-02-12T11:11:03.185Z,99.90
2023-02-12T11:13:30.121Z,99.90
2023-02-12T11:15:56.691Z,99.90
2023-02-12T11:18:25.997Z,99.90
2023-02-12T11:20:54.653Z,99.90
2023-02-12T11:23:25.810Z,99.40
2023-02-12T11:26:00.193Z,99.30
2023-02-12T11:28:27.479Z,55.70
2023-02-12T11:30:59.105Z,55.80
2023-02-12T11:33:33.438Z,99.90
2023-02-12T11:36:07.027Z,99.90
2023-02-12T11:38:35.994Z,59.50
2023-02-12T11:41:06.322Z,99.90
2023-02-12T11:43:34.004Z,99.90
2023-02-12T11:46:00.830Z,79.70
2023-02-12T11:48:30.934Z,14.80
2023-02-12T11:50:58.508Z,1.00
2023-02-12T11:53:27.661Z,1.00
2023-02-12T11:55:55.562Z,78.40
2023-02-12T11:58:23.515Z,23.00
2023-02-12T12:00:53.622Z,42.40
2023-02-12T12:03:26.983Z,99.90
2023-02-12T12:06:05.004Z,99.90
2023-02-12T12:08:44.070Z,99.90
2023-02-12T12:11:14.046Z,99.90
2023-02-12T12:13:44.457Z,99.90
2023-02-12T12:16:36.983Z,99.90
2023-02-12T12:19:29.022Z,99.90
2023-02-12T12:21:59.950Z,99.90
2023-02-12T12:24:29.097Z,99.90
2023-02-12T12:27:00.730Z,99.90
2023-02-12T12:29:33.484Z,99.90
2023-02-12T12:32:01.524Z,99.90
2023-02-12T12:34:28.744Z,99.90
2023-02-12T12:37:12.619Z,99.90
2023-02-12T12:39:57.870Z,99.90
2023-02-12T12:42:50.750Z,99.90
2023-02-12T12:45:17.359Z,99.90
2023-02-12T12:48:07.366Z,99.90
2023-02-12T12:50:49.388Z,99.90
2023-02-12T12:53:26.502Z,99.90
2023-02-12T12:56:04.535Z,99.90
2023-02-12T12:58:36.039Z,99.70
2023-02-12T13:01:05.898Z,99.90
2023-02-12T13:03:35.636Z,99.90
2023-02-12T13:06:11.259Z,67.60
2023-02-12T13:08:43.032Z,98.30
2023-02-12T13:11:15.837Z,89.70
2023-02-12T13:13:45.444Z,64.90
2023-02-12T13:16:19.913Z,99.90
2023-02-12T13:18:52.250Z,99.90
2023-02-12T13:21:29.340Z,99.90
2023-02-12T13:23:55.835Z,99.90
2023-02-12T13:26:31.965Z,99.90
2023-02-12T13:29:01.879Z,1.00
2023-02-12T13:31:33.351Z,11.50
2023-02-12T13:34:06.979Z,85.20
2023-02-12T13:36:35.911Z,21.20
2023-02-12T13:39:21.284Z,11.70
2023-02-12T13:41:53.121Z,32.90
2023-02-12T13:44:32.264Z,99.90
2023-02-12T13:47:11.152Z,20.10
2023-02-12T13:49:56.528Z,1.40
2023-02-12T13:52:22.997Z,1.00
2023-02-12T13:55:11.124Z,1.00
2023-02-12T13:57:37.625Z,1.00
2023-02-12T14:00:08.829Z,1.00
2023-02-12T14:02:38.378Z,1.00
2023-02-12T14:05:15.548Z,1.00
2023-02-12T14:07:43.497Z,1.00
2023-02-12T14:10:19.851Z,1.00
2023-02-12T14:12:47.004Z,1.00
2023-02-12T14:15:29.555Z,99.90
2023-02-12T14:18:02.100Z,99.90
2023-02-12T14:20:29.675Z,99.90
2023-02-12T14:22:57.634Z,99.90
2023-02-12T14:25:24.123Z,99.90
2023-02-12T14:27:55.317Z,99.90
2023-02-12T14:30:25.389Z,99.90
2023-02-12T14:32:55.705Z,99.90
2023-02-12T14:35:31.528Z,99.90
2023-02-12T14:37:59.374Z,99.90
2023-02-12T14:40:35.196Z,99.90
2023-02-12T14:43:02.962Z,99.90
2023-02-12T14:45:31.657Z,99.90
2023-02-12T14:47:58.551Z,99.90
2023-02-12T14:50:26.397Z,99.90
2023-02-12T14:52:55.376Z,99.90
2023-02-12T14:55:27.176Z,99.90
2023-02-12T14:57:58.420Z,99.90
2023-02-12T15:00:34.100Z,99.90
2023-02-12T15:03:15.229Z,99.90
2023-02-12T15:05:43.337Z,99.90
2023-02-12T15:08:31.166Z,99.90
2023-02-12T15:11:09.203Z,99.90
2023-02-12T15:13:47.051Z,99.90
2023-02-12T15:16:17.336Z,99.90
2023-02-12T15:19:02.788Z,99.90
2023-02-12T15:21:31.699Z,99.90
2023-02-12T15:24:00.924Z,1.00
2023-02-12T15:26:28.180Z,1.00
2023-02-12T15:28:54.671Z,99.90
2023-02-12T15:31:30.009Z,99.90
2023-02-12T15:33:58.341Z,99.90
2023-02-12T15:36:26.171Z,99.90
2023-02-12T15:39:00.160Z,99.90
2023-02-12T15:41:32.720Z,99.90
2023-02-12T15:44:00.043Z,1.00
2023-02-12T15:46:26.725Z,99.90
2023-02-12T15:48:55.505Z,99.90
2023-02-12T15:51:28.102Z,1.00
2023-02-12T15:53:54.946Z,1.00
2023-02-12T15:56:22.891Z,1.00
2023-02-12T16:02:29.370Z,1.00
2023-02-12T16:04:56.852Z,1.00
2023-02-12T16:07:24.223Z,99.90
2023-02-12T16:09:51.024Z,99.90
2023-02-12T16:12:19.331Z,99.90
2023-02-12T16:14:47.890Z,1.00
2023-02-12T16:17:22.229Z,1.00
2023-02-12T16:19:59.348Z,1.00
2023-02-12T16:22:46.235Z,1.00
2023-02-12T16:25:20.647Z,1.00
2023-02-12T16:27:59.165Z,1.00
2023-02-12T16:30:27.192Z,1.00
2023-02-12T16:32:54.068Z,1.00
2023-02-12T16:35:26.390Z,1.00
2023-02-12T16:38:00.814Z,99.90
2023-02-12T16:40:29.826Z,99.90
2023-02-12T16:42:57.184Z,1.00
2023-02-12T16:45:26.719Z,1.00
2023-02-12T16:48:06.918Z,1.00
2023-02-12T16:50:34.610Z,1.00
2023-02-12T16:53:02.499Z,1.00
2023-02-12T16:55:29.024Z,1.00
2023-02-12T16:57:55.570Z,1.00
2023-02-12T17:00:22.565Z,1.00
2023-02-12T17:02:49.286Z,1.00
2023-02-12T17:05:19.146Z,1.00
2023-02-12T17:07:45.722Z,1.00
2023-02-12T17:10:13.398Z,99.90
2023-02-12T17:12:50.691Z,99.90
2023-02-12T17:15:22.029Z,99.90
2023-02-12T17:17:48.592Z,1.00
2023-02-12T17:20:15.186Z,1.00
2023-02-12T17:22:45.124Z,1.00
2023-02-12T17:25:12.030Z,1.00
2023-02-12T17:27:38.530Z,1.00
2023-02-12T17:30:07.095Z,1.00
2023-02-12T17:32:33.617Z,1.00
2023-02-12T17:35:00.148Z,1.00
2023-02-12T17:37:26.701Z,1.00
2023-02-12T17:39:53.228Z,1.00
2023-02-12T17:42:19.772Z,1.00
2023-02-12T17:44:46.302Z,1.00
2023-02-12T17:47:12.864Z,1.00
2023-02-12T17:49:40.288Z,1.00
2023-02-12T17:52:07.540Z,1.00
2023-02-12T17:54:34.153Z,1.00
2023-02-12T17:57:00.656Z,1.00
2023-02-12T17:59:27.268Z,1.00
2023-02-12T18:01:53.824Z,1.00
2023-02-12T18:04:20.576Z,1.00
2023-02-12T18:06:47.132Z,1.00
2023-02-12T18:09:13.845Z,1.00
2023-02-12T18:11:42.155Z,1.00
2023-02-12T18:14:10.776Z,1.00
2023-02-12T18:16:37.368Z,1.00
2023-02-12T18:19:05.404Z,1.00
2023-02-12T18:21:33.898Z,1.00
2023-02-12T18:24:01.027Z,1.00
2023-02-12T18:26:27.631Z,1.00
2023-02-12T18:28:54.185Z,1.00
2023-02-12T18:31:21.088Z,1.00
2023-02-12T18:33:47.648Z,1.00
2023-02-12T18:36:16.967Z,1.00
2023-02-12T18:38:44.650Z,1.00
2023-02-12T18:41:12.616Z,1.00
2023-02-12T18:43:39.537Z,99.90
2023-02-12T18:46:10.462Z,99.90
2023-02-12T18:48:37.340Z,99.90
2023-02-12T18:51:05.021Z,1.00
2023-02-12T18:53:31.615Z,1.00
2023-02-12T18:55:58.377Z,1.00
2023-02-12T18:58:25.056Z,1.00
2023-02-12T19:00:51.586Z,1.00
2023-02-12T19:03:18.185Z,99.90
2023-02-12T19:05:44.703Z,99.90
2023-02-12T19:08:11.588Z,99.90
2023-02-12T19:10:38.753Z,99.90
2023-02-12T19:13:05.326Z,99.90
2023-02-12T19:15:31.920Z,99.90
2023-02-12T19:17:58.463Z,99.90
2023-02-12T19:20:25.030Z,99.90
2023-02-12T19:22:51.544Z,99.90
2023-02-12T19:25:18.183Z,1.00
2023-02-12T19:27:44.759Z,1.00
2023-02-12T19:30:11.548Z,1.00
2023-02-12T19:32:38.208Z,1.00
2023-02-12T19:35:05.220Z,1.00
2023-02-12T19:37:32.024Z,1.00
2023-02-12T19:39:58.816Z,1.00
2023-02-12T19:42:25.341Z,1.00
2023-02-12T19:44:51.847Z,99.90
2023-02-12T19:47:18.421Z,99.90
2023-02-12T19:49:45.845Z,99.90
2023-02-12T19:52:12.382Z,99.90
2023-02-12T19:54:39.068Z,99.90
2023-02-12T19:57:09.127Z,99.90
2023-02-12T19:59:36.194Z,99.90
2023-02-12T20:02:03.072Z,99.90
2023-02-12T20:04:30.793Z,99.90
2023-02-12T20:06:57.324Z,99.90
2023-02-12T20:09:24.237Z,1.00
2023-02-12T20:11:50.845Z,1.00
2023-02-12T20:14:17.632Z,1.00
2023-02-12T20:16:46.883Z,1.00
2023-02-12T20:19:16.162Z,1.00
2023-02-12T20:21:43.375Z,1.00
2023-02-12T20:24:10.029Z,1.00
2023-02-12T20:26:36.806Z,1.00
2023-02-12T20:29:05.190Z,99.90
2023-02-12T20:31:33.505Z,99.90
2023-02-12T20:34:02.431Z,99.90
2023-02-12T20:36:37.204Z,99.90
2023-02-12T20:39:04.484Z,99.90
2023-02-12T20:41:40.008Z,99.90
2023-02-12T20:44:09.222Z,99.90
2023-02-12T20:46:37.814Z,99.90
2023-02-12T20:49:04.851Z,99.90
2023-02-12T20:51:31.944Z,99.90
2023-02-12T20:54:00.616Z,99.90
2023-02-12T20:56:28.785Z,99.90
2023-02-12T20:58:55.295Z,99.90
2023-02-12T21:01:23.598Z,99.90
2023-02-12T21:03:51.346Z,99.90
2023-02-12T21:06:18.487Z,99.90
2023-02-12T21:08:45.389Z,99.90
2023-02-12T21:11:15.248Z,99.90
2023-02-12T21:13:50.412Z,99.90
2023-02-12T21:16:36.309Z,99.90
2023-02-12T21:19:02.998Z,99.90
2023-02-12T21:21:30.898Z,99.90
2023-02-12T21:23:58.708Z,99.90
2023-02-12T21:26:26.672Z,99.90
2023-02-12T21:28:53.475Z,99.90
2023-02-12T21:31:22.055Z,99.90
2023-02-12T21:33:49.725Z,99.90
2023-02-12T21:36:17.407Z,99.90
2023-02-12T21:38:44.969Z,99.90
2023-02-12T21:41:13.931Z,99.90
2023-02-12T21:43:42.391Z,99.90
2023-02-12T21:46:09.069Z,99.90
2023-02-12T21:48:36.243Z,99.90
2023-02-12T21:51:02.853Z,99.90
2023-02-12T21:53:29.473Z,99.90
2023-02-12T21:55:56.209Z,99.90
2023-02-12T21:58:23.016Z,99.90
2023-02-12T22:00:50.507Z,99.90
2023-02-12T22:03:19.184Z,99.90
2023-02-12T22:05:46.317Z,99.90
2023-02-12T22:08:12.829Z,99.90
2023-02-12T22:10:39.362Z,99.90
2023-02-12T22:13:06.033Z,99.90
2023-02-12T22:15:32.679Z,99.90
2023-02-12T22:17:59.280Z,99.90
2023-02-12T22:20:25.800Z,99.90
2023-02-12T22:22:52.386Z,99.90
2023-02-12T22:25:19.101Z,99.90
2023-02-12T22:27:45.604Z,99.90
2023-02-12T22:30:12.342Z,99.90
2023-02-12T22:32:38.946Z,99.90
2023-02-12T22:35:05.782Z,99.90
2023-02-12T22:37:32.424Z,99.90
2023-02-12T22:39:58.933Z,99.90
2023-02-12T22:42:25.526Z,99.90
2023-02-12T22:44:52.205Z,99.90
2023-02-12T22:47:18.710Z,99.90
2023-02-12T22:49:45.248Z,99.90
2023-02-12T22:52:14.825Z,99.90
2023-02-12T22:54:41.566Z,99.90
2023-02-12T22:57:08.092Z,99.90
2023-02-12T22:59:34.663Z,99.90
2023-02-12T23:02:04.097Z,99.90
2023-02-12T23:04:30.710Z,99.90
2023-02-12T23:06:57.211Z,99.90
2023-02-12T23:09:23.795Z,99.90
2023-02-12T23:11:50.435Z,99.90
2023-02-12T23:14:17.851Z,99.90
2023-02-12T23:16:44.771Z,99.90
2023-02-12T23:19:11.436Z,99.90
2023-02-12T23:21:38.016Z,99.90
2023-02-12T23:24:05.361Z,99.90
2023-02-12T23:26:31.863Z,99.90
2023-02-12T23:28:58.459Z,99.90
2023-02-12T23:31:25.686Z,99.90
2023-02-12T23:33:52.305Z,99.90
2023-02-12T23:36:18.814Z,99.90
2023-02-12T23:38:45.320Z,99.90
2023-02-12T23:41:12.054Z,99.90
2023-02-12T23:43:38.591Z,99.90
2023-02-12T23:46:05.752Z,99.90
2023-02-12T23:48:32.377Z,99.90
2023-02-12T23:50:59.420Z,99.90
2023-02-12T23:53:26.360Z,99.90
2023-02-12T23:55:52.996Z,99.90
2023-02-12T23:58:19.677Z,99.90
